createdAt,value
2022-08-07T00:01:12.467Z,8.82
2022-08-07T00:03:50.659Z,11.73
2022-08-07T00:06:17.556Z,9.63
2022-08-07T00:08:47.297Z,11.10
2022-08-07T00:11:13.974Z,9.23
2022-08-07T00:13:47.924Z,8.90
2022-08-07T00:16:17.415Z,12.20
2022-08-07T00:18:48.166Z,12.10
2022-08-07T00:21:57.084Z,11.10
2022-08-07T00:24:01.714Z,9.90
2022-08-07T00:26:59.503Z,11.15
2022-08-07T00:29:15.349Z,14.98
2022-08-07T00:31:42.718Z,11.80
2022-08-07T00:34:10.061Z,15.65
2022-08-07T00:36:42.664Z,14.50
2022-08-07T00:39:12.822Z,17.52
2022-08-07T00:41:53.832Z,14.68
2022-08-07T00:44:28.148Z,13.25
2022-08-07T00:46:55.515Z,15.38
2022-08-07T00:49:24.757Z,16.40
2022-08-07T00:52:09.829Z,12.70
2022-08-07T00:54:36.641Z,14.27
2022-08-07T00:57:07.431Z,13.27
2022-08-07T00:59:37.661Z,12.70
2022-08-07T01:02:06.244Z,13.57
2022-08-07T01:04:42.901Z,12.50
2022-08-07T01:07:10.874Z,13.85
2022-08-07T01:10:04.687Z,13.95
2022-08-07T01:12:30.208Z,13.00
2022-08-07T01:15:01.468Z,13.77
2022-08-07T01:17:34.635Z,15.18
2022-08-07T01:20:10.394Z,12.05
2022-08-07T01:22:46.824Z,10.75
2022-08-07T01:25:53.589Z,11.20
2022-08-07T01:28:14.669Z,11.85
2022-08-07T01:30:41.286Z,12.15
2022-08-07T01:33:08.773Z,12.55
2022-08-07T01:35:52.893Z,13.20
2022-08-07T01:38:24.919Z,12.73
2022-08-07T01:40:57.579Z,10.73
2022-08-07T01:43:25.954Z,10.30
2022-08-07T01:45:54.536Z,12.65
2022-08-07T01:48:30.231Z,12.73
2022-08-07T01:51:00.409Z,10.40
2022-08-07T01:54:12.031Z,11.15
2022-08-07T01:56:55.203Z,12.07
2022-08-07T01:59:24.628Z,12.02
2022-08-07T02:02:04.267Z,12.10
2022-08-07T02:07:02.734Z,9.75
2022-08-07T02:09:33.808Z,10.35
2022-08-07T02:12:17.862Z,9.05
2022-08-07T02:14:50.515Z,10.43
2022-08-07T02:17:27.484Z,12.93
2022-08-07T02:20:07.591Z,11.85
2022-08-07T02:22:41.143Z,11.43
2022-08-07T02:25:13.964Z,9.90
2022-08-07T02:27:44.662Z,10.10
2022-08-07T02:30:19.175Z,9.18
2022-08-07T02:33:03.851Z,9.65
2022-08-07T02:36:29.540Z,10.48
2022-08-07T02:38:28.156Z,11.15
2022-08-07T02:40:58.734Z,12.25
2022-08-07T02:43:26.563Z,13.18
2022-08-07T02:45:58.511Z,11.23
2022-08-07T02:48:28.211Z,13.27
2022-08-07T02:50:55.210Z,11.43
2022-08-07T02:53:27.430Z,12.98
2022-08-07T02:56:04.371Z,12.45
2022-08-07T02:58:33.510Z,13.15
2022-08-07T03:01:00.490Z,9.93
2022-08-07T03:03:29.607Z,14.45
2022-08-07T03:06:16.589Z,10.55
2022-08-07T03:08:52.552Z,10.77
2022-08-07T03:11:19.558Z,11.70
2022-08-07T03:13:51.904Z,13.48
2022-08-07T03:16:27.811Z,11.52
2022-08-07T03:18:54.660Z,9.02
2022-08-07T03:21:22.566Z,8.57
2022-08-07T03:24:20.524Z,9.85
2022-08-07T03:26:36.050Z,8.93
2022-08-07T03:29:16.849Z,9.50
2022-08-07T03:31:46.373Z,9.65
2022-08-07T03:34:18.585Z,9.82
2022-08-07T03:36:50.301Z,9.30
2022-08-07T03:39:17.078Z,14.43
2022-08-07T03:42:04.448Z,10.02
2022-08-07T03:44:34.652Z,12.85
2022-08-07T03:47:14.196Z,9.40
2022-08-07T03:49:49.921Z,9.80
2022-08-07T03:52:26.036Z,11.25
2022-08-07T03:59:05.520Z,10.30
2022-08-07T04:00:21.265Z,10.82
2022-08-07T04:02:58.015Z,10.75
2022-08-07T04:05:28.729Z,10.55
2022-08-07T04:08:06.590Z,9.38
2022-08-07T04:10:33.216Z,9.45
2022-08-07T04:13:05.314Z,10.05
2022-08-07T04:15:31.967Z,10.93
2022-08-07T04:18:57.463Z,12.30
2022-08-07T04:20:54.709Z,13.00
2022-08-07T04:23:21.873Z,10.75
2022-08-07T04:25:49.169Z,10.18
2022-08-07T04:28:15.899Z,9.48
2022-08-07T04:30:57.309Z,10.50
2022-08-07T04:33:25.661Z,12.65
2022-08-07T04:35:53.987Z,10.63
2022-08-07T04:38:21.250Z,10.57
2022-08-07T04:40:52.457Z,9.75
2022-08-07T04:44:12.566Z,12.63
2022-08-07T04:46:40.019Z,12.65
2022-08-07T04:50:03.900Z,9.52
2022-08-07T04:52:37.627Z,13.98
2022-08-07T04:58:10.696Z,9.10
2022-08-07T04:59:15.857Z,11.38
2022-08-07T05:01:46.795Z,9.27
2022-08-07T05:04:21.383Z,9.65
2022-08-07T05:06:59.200Z,8.93
2022-08-07T05:09:58.510Z,8.90
2022-08-07T05:12:32.085Z,11.02
2022-08-07T05:15:23.039Z,8.00
2022-08-07T05:17:55.131Z,10.15
2022-08-07T05:20:27.039Z,10.18
2022-08-07T05:22:57.135Z,7.30
2022-08-07T05:25:25.925Z,7.50
2022-08-07T05:28:20.096Z,9.15
2022-08-07T05:30:49.912Z,7.07
2022-08-07T05:33:20.835Z,7.03
2022-08-07T05:35:48.960Z,8.05
2022-08-07T05:38:59.660Z,6.13
2022-08-07T05:41:05.332Z,9.27
2022-08-07T05:44:08.493Z,8.15
2022-08-07T05:46:29.373Z,33.30
2022-08-07T05:48:58.229Z,38.13
2022-08-07T05:51:26.254Z,39.33
2022-08-07T05:54:13.263Z,233.32
2022-08-07T05:56:45.012Z,336.27
2022-08-07T05:59:15.201Z,102.13
2022-08-07T06:01:42.270Z,191.35
2022-08-07T06:04:09.066Z,7.72
2022-08-07T06:06:35.716Z,45.42
2022-08-07T06:09:04.721Z,20.27
2022-08-07T06:11:32.941Z,6.57
2022-08-07T06:14:12.047Z,11.02
2022-08-07T06:16:50.576Z,5.00
2022-08-07T06:19:58.396Z,6.03
2022-08-07T06:22:14.841Z,3.45
2022-08-07T06:24:57.010Z,5.80
2022-08-07T06:28:00.391Z,6.38
2022-08-07T06:30:32.160Z,4.55
2022-08-07T06:32:59.159Z,5.70
2022-08-07T06:35:30.645Z,5.57
2022-08-07T06:38:20.064Z,5.85
2022-08-07T06:40:50.178Z,4.43
2022-08-07T06:43:21.697Z,3.90
2022-08-07T06:45:49.094Z,5.07
2022-08-07T06:48:15.844Z,4.88
2022-08-07T06:50:51.783Z,3.50
2022-08-07T06:53:49.192Z,3.45
2022-08-07T06:56:07.445Z,3.75
2022-08-07T07:00:12.467Z,3.33
2022-08-07T07:01:33.191Z,3.17
2022-08-07T07:04:28.546Z,4.55
2022-08-07T07:07:01.001Z,6.20
2022-08-07T07:09:30.941Z,4.63
2022-08-07T07:12:16.559Z,4.85
2022-08-07T07:15:03.651Z,3.70
2022-08-07T07:17:39.064Z,4.18
2022-08-07T07:20:23.528Z,3.58
2022-08-07T07:24:06.133Z,4.90
2022-08-07T07:26:32.687Z,6.22
2022-08-07T07:28:48.339Z,3.58
2022-08-07T07:31:30.305Z,5.13
2022-08-07T07:34:08.661Z,4.65
2022-08-07T07:36:40.462Z,4.35
2022-08-07T07:39:07.381Z,5.88
2022-08-07T07:42:01.927Z,6.53
2022-08-07T07:44:25.978Z,3.33
2022-08-07T07:46:56.145Z,5.15
2022-08-07T07:50:33.221Z,8.23
2022-08-07T07:52:16.104Z,5.53
2022-08-07T07:54:44.173Z,7.97
2022-08-07T07:57:21.116Z,5.38
2022-08-07T08:00:09.331Z,4.63
2022-08-07T08:02:36.127Z,6.53
2022-08-07T08:05:04.395Z,3.85
2022-08-07T08:07:35.358Z,8.30
2022-08-07T08:10:09.122Z,5.22
2022-08-07T08:12:52.258Z,7.88
2022-08-07T08:15:27.258Z,4.67
2022-08-07T08:18:18.032Z,6.03
2022-08-07T08:20:45.398Z,7.40
2022-08-07T08:23:33.099Z,5.28
2022-08-07T08:26:21.573Z,4.47
2022-08-07T08:28:51.193Z,6.90
2022-08-07T08:31:30.407Z,3.83
2022-08-07T08:34:12.509Z,5.50
2022-08-07T08:36:57.707Z,6.00
2022-08-07T08:39:25.365Z,4.68
2022-08-07T08:42:18.351Z,4.40
2022-08-07T08:44:54.709Z,4.40
2022-08-07T08:47:54.796Z,4.18
2022-08-07T08:50:38.866Z,5.40
2022-08-07T08:53:13.565Z,5.13
2022-08-07T08:55:54.730Z,6.03
2022-08-07T08:59:06.511Z,4.18
2022-08-07T09:02:08.910Z,6.13
2022-08-07T09:04:43.777Z,4.30
2022-08-07T09:07:23.278Z,5.57
2022-08-07T09:09:56.633Z,3.85
2022-08-07T09:13:00.857Z,6.25
2022-08-07T09:16:21.840Z,7.47
2022-08-07T09:18:33.615Z,7.90
2022-08-07T09:21:57.921Z,3.85
2022-08-07T09:24:55.077Z,4.05
2022-08-07T09:27:59.753Z,4.07
2022-08-07T09:30:54.593Z,3.70
2022-08-07T09:33:53.075Z,6.50
2022-08-07T09:36:35.330Z,4.82
2022-08-07T09:39:54.506Z,4.10
2022-08-07T09:42:43.120Z,5.07
2022-08-07T09:47:52.543Z,3.13
2022-08-07T09:49:09.421Z,4.35
2022-08-07T09:52:16.113Z,4.10
2022-08-07T09:55:29.310Z,4.72
2022-08-07T09:58:32.010Z,6.05
2022-08-07T10:01:23.295Z,4.82
2022-08-07T10:04:32.652Z,4.22
2022-08-07T10:07:39.710Z,4.10
2022-08-07T10:10:22.794Z,3.33
2022-08-07T10:13:06.241Z,4.97
2022-08-07T10:15:59.969Z,3.92
2022-08-07T10:21:50.767Z,9.65
2022-08-07T10:24:08.624Z,5.30
2022-08-07T10:26:53.044Z,4.97
2022-08-07T10:29:59.391Z,4.10
2022-08-07T10:32:52.451Z,5.68
2022-08-07T10:35:56.860Z,3.83
2022-08-07T10:38:41.143Z,9.32
2022-08-07T10:41:46.288Z,6.63
2022-08-07T10:44:45.240Z,3.45
2022-08-07T10:47:14.161Z,3.33
2022-08-07T10:49:45.284Z,4.95
2022-08-07T10:52:51.302Z,6.32
2022-08-07T10:55:36.868Z,8.45
2022-08-07T11:26:24.248Z,7.30
2022-08-07T11:28:55.170Z,4.78
2022-08-07T11:31:41.594Z,4.50
2022-08-07T11:34:24.925Z,5.00
2022-08-07T11:37:03.012Z,5.07
2022-08-07T11:39:59.912Z,3.85
2022-08-07T11:42:55.309Z,3.90
2022-08-07T11:45:53.664Z,5.22
2022-08-07T11:49:27.565Z,4.28
2022-08-07T11:51:59.276Z,4.65
2022-08-07T11:55:00.097Z,6.57
2022-08-07T11:58:00.401Z,3.40
2022-08-07T12:01:08.289Z,4.13
2022-08-07T12:03:47.147Z,3.13
2022-08-07T12:07:00.980Z,2.92
2022-08-07T12:09:47.702Z,4.38
2022-08-07T12:12:19.619Z,3.95
2022-08-07T12:15:01.325Z,5.75
2022-08-07T12:17:34.311Z,4.50
2022-08-07T12:20:30.150Z,4.38
2022-08-07T12:23:14.435Z,4.25
2022-08-07T12:26:02.978Z,4.55
2022-08-07T12:28:52.942Z,3.78
2022-08-07T12:31:53.127Z,3.85
2022-08-07T12:36:53.719Z,5.68
2022-08-07T12:39:42.479Z,6.25
2022-08-07T12:42:08.027Z,5.15
2022-08-07T12:44:34.840Z,3.95
2022-08-07T12:47:21.864Z,4.53
2022-08-07T12:50:38.078Z,3.22
2022-08-07T12:53:28.726Z,4.43
2022-08-07T12:56:41.435Z,5.35
2022-08-07T12:59:08.973Z,4.13
2022-08-07T13:02:27.019Z,4.45
2022-08-07T13:05:14.686Z,4.38
2022-08-07T13:08:22.267Z,3.92
2022-08-07T13:11:31.534Z,4.50
2022-08-07T13:14:50.910Z,3.65
2022-08-07T13:17:39.897Z,5.82
2022-08-07T13:20:34.987Z,4.45
2022-08-07T13:23:59.840Z,3.20
2022-08-07T13:26:00.633Z,3.90
2022-08-07T13:29:03.612Z,3.55
2022-08-07T13:32:32.080Z,5.13
2022-08-07T13:34:59.271Z,3.15
2022-08-07T13:37:58.514Z,3.05
2022-08-07T13:40:49.916Z,2.80
2022-08-07T13:43:21.539Z,4.18
2022-08-07T13:46:21.568Z,3.20
2022-08-07T13:48:39.677Z,3.42
2022-08-07T13:51:28.210Z,3.75
2022-08-07T13:54:02.132Z,2.42
2022-08-07T13:56:35.913Z,5.20
2022-08-07T13:59:13.896Z,3.00
2022-08-07T14:02:03.425Z,4.70
2022-08-07T14:04:35.452Z,2.88
2022-08-07T14:07:05.963Z,2.67
2022-08-07T14:10:01.533Z,7.32
2022-08-07T14:12:27.565Z,2.97
2022-08-07T14:15:00.635Z,2.63
2022-08-07T14:18:12.486Z,3.47
2022-08-07T14:20:42.906Z,2.70
2022-08-07T14:23:31.366Z,2.72
2022-08-07T14:29:06.021Z,4.00
2022-08-07T14:31:55.973Z,5.32
2022-08-07T14:34:29.191Z,2.90
2022-08-07T14:36:56.976Z,2.78
2022-08-07T14:40:16.665Z,5.07
2022-08-07T14:42:19.758Z,3.42
2022-08-07T14:44:52.715Z,4.25
2022-08-07T14:47:20.008Z,2.85
2022-08-07T14:52:38.094Z,3.17
2022-08-07T14:55:05.830Z,4.72
2022-08-07T15:00:30.461Z,3.70
2022-08-07T15:05:54.371Z,2.22
2022-08-07T15:08:34.008Z,2.63
2022-08-07T15:11:08.686Z,2.92
2022-08-07T15:13:47.035Z,2.55
2022-08-07T15:16:19.777Z,3.50
2022-08-07T15:25:16.169Z,3.50
2022-08-07T15:27:26.301Z,2.80
2022-08-07T15:33:01.465Z,4.93
2022-08-07T15:36:01.630Z,2.90
2022-08-07T15:38:30.738Z,3.88
2022-08-07T15:43:57.296Z,4.75
2022-08-07T15:46:32.110Z,4.40
2022-08-07T15:49:13.064Z,3.35
2022-08-07T15:54:26.403Z,4.88
2022-08-07T15:56:53.052Z,3.80
2022-08-07T15:59:20.398Z,3.78
2022-08-07T16:02:07.206Z,4.07
2022-08-07T16:04:36.112Z,5.53
2022-08-07T16:08:28.317Z,4.97
2022-08-07T16:09:54.586Z,3.40
2022-08-07T16:13:17.999Z,3.92
2022-08-07T16:16:42.954Z,3.60
2022-08-07T16:19:43.166Z,3.17
2022-08-07T16:22:54.998Z,4.30
2022-08-07T16:25:54.692Z,5.85
2022-08-07T16:30:05.842Z,4.70
2022-08-07T16:31:57.576Z,3.72
2022-08-07T16:34:32.166Z,3.22
2022-08-07T16:38:06.586Z,3.33
2022-08-07T16:40:23.316Z,4.28
2022-08-07T16:43:14.024Z,3.47
2022-08-07T16:46:47.583Z,5.13
2022-08-07T16:49:04.292Z,6.03
2022-08-07T16:51:57.594Z,3.78
2022-08-07T16:54:54.961Z,3.13
2022-08-07T16:58:02.185Z,5.13
2022-08-07T17:00:29.902Z,4.15
2022-08-07T17:03:17.464Z,4.75
2022-08-07T17:06:18.971Z,4.28
2022-08-07T17:09:10.807Z,7.15
2022-08-07T17:12:34.422Z,4.25
2022-08-07T17:15:00.740Z,5.13
2022-08-07T17:17:48.565Z,2.63
2022-08-07T17:20:41.729Z,2.95
2022-08-07T17:23:32.257Z,6.32
2022-08-07T17:26:22.839Z,2.97
2022-08-07T17:30:14.177Z,2.95
2022-08-07T17:32:30.114Z,3.17
2022-08-07T17:35:51.058Z,4.43
2022-08-07T17:38:32.220Z,5.45
2022-08-07T17:42:02.532Z,2.90
2022-08-07T17:44:33.803Z,3.50
2022-08-07T17:47:16.979Z,4.88
2022-08-07T17:50:00.735Z,3.60
2022-08-07T17:52:58.956Z,3.67
2022-08-07T17:56:00.504Z,3.67
2022-08-07T17:58:31.870Z,6.00
2022-08-07T18:00:59.722Z,3.65
2022-08-07T18:04:16.700Z,2.80
2022-08-07T18:07:20.966Z,3.05
2022-08-07T18:10:05.758Z,4.90
2022-08-07T18:15:17.801Z,4.10
2022-08-07T18:18:44.806Z,3.15
2022-08-07T18:21:42.357Z,3.03
2022-08-07T18:24:07.736Z,4.90
2022-08-07T18:27:17.122Z,2.47
2022-08-07T18:30:05.703Z,2.70
2022-08-07T18:32:46.313Z,5.03
2022-08-07T18:35:55.842Z,3.80
2022-08-07T18:38:55.557Z,4.55
2022-08-07T18:41:54.361Z,3.13
2022-08-07T18:44:30.872Z,4.00
2022-08-07T18:47:22.785Z,3.20
2022-08-07T18:50:39.267Z,4.05
2022-08-07T18:53:13.914Z,3.00
2022-08-07T18:55:55.819Z,4.07
2022-08-07T18:58:38.365Z,2.50
2022-08-07T19:02:17.452Z,4.18
2022-08-07T19:04:57.627Z,5.43
2022-08-07T19:08:07.241Z,4.75
2022-08-07T19:10:51.294Z,3.53
2022-08-07T19:13:40.772Z,5.05
2022-08-07T19:17:01.527Z,3.97
2022-08-07T19:19:39.263Z,3.00
2022-08-07T19:22:34.171Z,3.58
2022-08-07T19:25:05.647Z,3.72
2022-08-07T19:28:57.031Z,2.70
2022-08-07T19:31:00.136Z,4.80
2022-08-07T19:33:10.283Z,4.22
2022-08-07T19:35:40.306Z,4.03
2022-08-07T19:38:17.250Z,5.13
2022-08-07T19:40:49.337Z,4.63
2022-08-07T19:43:45.541Z,3.67
2022-08-07T19:46:18.992Z,6.85
2022-08-07T19:48:57.398Z,4.78
2022-08-07T19:51:53.231Z,5.35
2022-08-07T19:54:35.000Z,5.03
2022-08-07T19:58:00.655Z,7.00
2022-08-07T19:59:57.966Z,4.88
2022-08-07T20:02:51.651Z,3.78
2022-08-07T20:05:28.157Z,2.75
2022-08-07T20:08:01.065Z,4.75
2022-08-07T20:10:55.283Z,5.78
2022-08-07T20:13:42.484Z,3.33
2022-08-07T20:16:15.802Z,4.65
2022-08-07T20:18:57.901Z,4.65
2022-08-07T20:21:25.169Z,3.85
2022-08-07T20:23:58.008Z,4.07
2022-08-07T20:26:32.748Z,4.35
2022-08-07T20:29:24.446Z,3.27
2022-08-07T20:32:02.380Z,4.32
2022-08-07T20:34:49.710Z,6.05
2022-08-07T20:37:16.535Z,3.67
2022-08-07T20:40:03.265Z,3.25
2022-08-07T20:42:30.296Z,3.50
2022-08-07T20:44:59.287Z,3.50
2022-08-07T20:47:26.029Z,4.35
2022-08-07T20:50:12.778Z,4.50
2022-08-07T20:52:51.896Z,9.65
2022-08-07T20:55:23.885Z,3.25
2022-08-07T20:58:03.393Z,4.07
2022-08-07T21:00:42.474Z,4.15
2022-08-07T21:03:09.862Z,3.10
2022-08-07T21:05:51.104Z,6.53
2022-08-07T21:08:37.876Z,3.40
2022-08-07T21:11:12.424Z,3.85
2022-08-07T21:14:16.194Z,4.93
2022-08-07T21:18:03.737Z,2.80
2022-08-07T21:20:04.834Z,3.55
2022-08-07T21:22:34.771Z,3.38
2022-08-07T21:25:19.683Z,6.78
2022-08-07T21:28:09.604Z,5.95
2022-08-07T21:30:48.973Z,7.80
2022-08-07T21:33:19.431Z,4.82
2022-08-07T21:36:05.087Z,2.95
2022-08-07T21:38:49.849Z,3.13
2022-08-07T21:41:24.820Z,5.10
2022-08-07T21:44:29.976Z,7.57
2022-08-07T21:47:19.680Z,3.20
2022-08-07T21:50:01.966Z,4.25
2022-08-07T21:52:48.244Z,2.95
2022-08-07T21:55:28.193Z,5.68
2022-08-07T21:58:32.237Z,4.05
2022-08-07T22:01:03.030Z,4.28
2022-08-07T22:03:46.627Z,3.70
2022-08-07T22:06:30.889Z,3.33
2022-08-07T22:09:07.231Z,3.42
2022-08-07T22:12:05.071Z,5.82
2022-08-07T22:14:34.864Z,5.32
2022-08-07T22:17:04.095Z,4.28
2022-08-07T22:20:06.994Z,5.47
2022-08-07T22:22:47.235Z,3.10
2022-08-07T22:25:19.638Z,4.95
2022-08-07T22:28:20.323Z,4.60
2022-08-07T22:30:54.658Z,6.25
2022-08-07T22:33:50.957Z,5.57
2022-08-07T22:36:33.256Z,2.85
2022-08-07T22:39:07.679Z,6.50
2022-08-07T22:42:03.772Z,3.80
2022-08-07T22:44:25.178Z,3.47
2022-08-07T22:47:08.639Z,3.92
2022-08-07T22:49:51.889Z,4.00
2022-08-07T22:53:15.208Z,3.55
2022-08-07T22:56:00.763Z,5.30
2022-08-07T23:02:00.485Z,4.13
2022-08-07T23:07:40.312Z,7.00
2022-08-07T23:10:42.606Z,5.65
2022-08-07T23:13:48.682Z,5.30
2022-08-07T23:16:48.485Z,3.50
2022-08-07T23:19:51.402Z,4.65
2022-08-07T23:22:56.711Z,3.72
2022-08-07T23:26:01.724Z,3.88
2022-08-07T23:28:54.579Z,3.10
2022-08-07T23:34:19.954Z,3.75
2022-08-07T23:34:42.691Z,2.70
2022-08-07T23:38:00.438Z,5.00
2022-08-07T23:40:39.614Z,4.10
2022-08-07T23:43:38.035Z,3.40
2022-08-07T23:46:37.574Z,3.42
2022-08-07T23:49:19.423Z,3.15
2022-08-07T23:53:01.231Z,2.80
2022-08-07T23:55:12.275Z,2.72
2022-08-07T23:58:04.326Z,4.82
